Time,TemperatureF,DewpointF,PressureIn,WindDirection,WindDirectionDegrees,WindSpeedMPH,WindSpeedGustMPH,Humidity,HourlyPrecipIn,Conditions,Clouds,dailyrainin,SoftwareType,DateUTC
2013-03-31 00:00:00,37.8,32.2,30.12,SW,222,0.0,0.0,80,0.00,,---,0.00,VWS V14.01,2013-03-31 04:00:00,
2013-03-31 00:05:00,37.8,31.6,30.12,SW,222,0.0,0.0,78,0.00,,---,0.00,VWS V14.01,2013-03-31 04:05:00,
2013-03-31 00:10:00,37.9,31.7,30.13,SW,222,0.0,0.0,78,0.00,,---,0.00,VWS V14.01,2013-03-31 04:10:00,
2013-03-31 00:15:00,37.7,31.5,30.13,SW,222,0.0,0.0,78,0.00,,---,0.00,VWS V14.01,2013-03-31 04:15:00,
2013-03-31 00:20:00,37.6,31.4,30.13,SW,222,0.0,0.0,78,0.00,,---,0.00,VWS V14.01,2013-03-31 04:20:00,
2013-03-31 00:25:00,37.4,31.8,30.13,SW,222,0.0,0.0,80,0.00,,---,0.00,VWS V14.01,2013-03-31 04:25:00,
2013-03-31 00:30:00,37.6,32.9,30.13,SW,222,0.0,1.0,83,0.00,,---,0.00,VWS V14.01,2013-03-31 04:30:00,
2013-03-31 00:35:00,38.2,33.8,30.13,SW,222,1.0,2.0,84,0.00,,---,0.00,VWS V14.01,2013-03-31 04:35:00,
2013-03-31 00:40:00,38.6,34.5,30.13,SW,222,1.0,1.0,85,0.00,,---,0.00,VWS V14.01,2013-03-31 04:40:00,
2013-03-31 00:45:00,38.9,34.8,30.14,SW,222,0.0,1.0,85,0.00,,---,0.00,VWS V14.01,2013-03-31 04:45:00,
2013-03-31 00:50:00,39.1,35.0,30.14,SW,222,5.0,5.0,85,0.00,,---,0.00,VWS V14.01,2013-03-31 04:50:00,
2013-03-31 00:55:00,39.2,34.2,30.14,SW,222,5.0,7.0,82,0.00,,---,0.00,VWS V14.01,2013-03-31 04:55:00,
2013-03-31 01:00:00,39.3,33.3,30.14,SW,222,4.0,5.0,79,0.00,,---,0.00,VWS V14.01,2013-03-31 05:00:00,
2013-03-31 01:05:00,39.3,32.7,30.14,SW,222,4.0,4.0,77,0.00,,---,0.00,VWS V14.01,2013-03-31 05:05:00,
2013-03-31 01:10:00,39.4,32.2,30.14,SW,222,7.0,8.0,75,0.00,,---,0.00,VWS V14.01,2013-03-31 05:10:00,
2013-03-31 01:15:00,39.3,31.7,30.14,SW,222,2.0,4.0,74,0.00,,---,0.00,VWS V14.01,2013-03-31 05:15:00,
2013-03-31 01:20:00,39.5,30.9,30.14,SW,222,3.0,4.0,71,0.00,,---,0.00,VWS V14.01,2013-03-31 05:20:00,
2013-03-31 01:25:00,39.5,30.5,30.15,SW,222,2.0,2.0,70,0.00,,---,0.00,VWS V14.01,2013-03-31 05:25:00,
2013-03-31 01:30:00,39.4,30.4,30.15,SW,222,3.0,4.0,70,0.00,,---,0.00,VWS V14.01,2013-03-31 05:30:00,
2013-03-31 01:35:00,39.0,30.8,30.15,SW,222,3.0,5.0,72,0.00,,---,0.00,VWS V14.01,2013-03-31 05:35:00,
2013-03-31 01:40:00,38.7,30.8,30.14,SW,222,5.0,5.0,73,0.00,,---,0.00,VWS V14.01,2013-03-31 05:40:00,
2013-03-31 01:45:00,38.6,31.0,30.14,SW,222,3.0,3.0,74,0.00,,---,0.00,VWS V14.01,2013-03-31 05:45:00,
2013-03-31 01:51:00,38.6,30.7,30.14,SW,222,2.0,2.0,73,0.00,,---,0.00,VWS V14.01,2013-03-31 05:51:00,
2013-03-31 01:56:00,38.5,29.9,30.14,SW,222,2.0,5.0,71,0.00,,---,0.00,VWS V14.01,2013-03-31 05:56:00,
2013-03-31 02:01:00,38.6,30.0,30.14,SW,222,1.0,2.0,71,0.00,,---,0.00,VWS V14.01,2013-03-31 06:01:00,
2013-03-31 02:06:00,38.8,30.6,30.14,SW,222,0.0,1.0,72,0.00,,---,0.00,VWS V14.01,2013-03-31 06:06:00,
2013-03-31 02:11:00,38.8,31.2,30.14,SW,222,0.0,1.0,74,0.00,,---,0.00,VWS V14.01,2013-03-31 06:11:00,
2013-03-31 02:16:00,38.7,31.1,30.14,SW,222,0.0,0.0,74,0.00,,---,0.00,VWS V14.01,2013-03-31 06:16:00,
2013-03-31 02:21:00,38.6,31.0,30.14,SW,222,2.0,3.0,74,0.00,,---,0.00,VWS V14.01,2013-03-31 06:21:00,
2013-03-31 02:26:00,38.7,30.8,30.14,SW,222,2.0,3.0,73,0.00,,---,0.00,VWS V14.01,2013-03-31 06:26:00,
2013-03-31 02:31:00,38.6,29.7,30.14,SW,222,2.0,3.0,70,0.00,,---,0.00,VWS V14.01,2013-03-31 06:31:00,
2013-03-31 02:36:00,38.6,29.0,30.13,SW,222,1.0,2.0,68,0.00,,---,0.00,VWS V14.01,2013-03-31 06:36:00,
2013-03-31 02:41:00,38.6,29.0,30.14,SW,222,1.0,2.0,68,0.00,,---,0.00,VWS V14.01,2013-03-31 06:41:00,
2013-03-31 02:46:00,38.6,29.0,30.13,SW,222,0.0,2.0,68,0.00,,---,0.00,VWS V14.01,2013-03-31 06:46:00,
2013-03-31 02:51:00,38.6,28.6,30.13,SW,222,2.0,2.0,67,0.00,,---,0.00,VWS V14.01,2013-03-31 06:51:00,
2013-03-31 02:56:00,38.6,28.6,30.13,SW,222,1.0,2.0,67,0.00,,---,0.00,VWS V14.01,2013-03-31 06:56:00,
2013-03-31 03:01:00,38.7,28.7,30.13,SW,222,2.0,2.0,67,0.00,,---,0.00,VWS V14.01,2013-03-31 07:01:00,
2013-03-31 03:06:00,38.6,28.2,30.13,SW,222,1.0,2.0,66,0.00,,---,0.00,VWS V14.01,2013-03-31 07:06:00,
2013-03-31 03:11:00,38.6,28.2,30.13,SW,222,1.0,3.0,66,0.00,,---,0.00,VWS V14.01,2013-03-31 07:11:00,
2013-03-31 03:17:00,38.5,28.5,30.13,SW,222,0.0,0.0,67,0.00,,---,0.00,VWS V14.01,2013-03-31 07:17:00,
2013-03-31 03:22:00,38.4,28.4,30.13,SW,222,0.0,0.0,67,0.00,,---,0.00,VWS V14.01,2013-03-31 07:22:00,
2013-03-31 03:27:00,38.1,27.8,30.13,SW,222,0.0,0.0,66,0.00,,---,0.00,VWS V14.01,2013-03-31 07:27:00,
2013-03-31 03:32:00,37.9,30.0,30.13,SW,222,1.0,1.0,73,0.00,,---,0.00,VWS V14.01,2013-03-31 07:32:00,
2013-03-31 03:37:00,37.8,29.6,30.13,SW,222,1.0,4.0,72,0.00,,---,0.00,VWS V14.01,2013-03-31 07:37:00,
2013-03-31 03:42:00,37.8,28.6,30.13,SW,222,0.0,1.0,69,0.00,,---,0.00,VWS V14.01,2013-03-31 07:42:00,
2013-03-31 03:47:00,37.8,28.9,30.13,SW,222,0.0,0.0,70,0.00,,---,0.00,VWS V14.01,2013-03-31 07:47:00,
2013-03-31 03:52:00,37.5,28.3,30.14,SW,222,0.0,0.0,69,0.00,,---,0.00,VWS V14.01,2013-03-31 07:52:00,
2013-03-31 03:57:00,37.0,27.1,30.14,SW,222,0.0,2.0,67,0.00,,---,0.00,VWS V14.01,2013-03-31 07:57:00,
2013-03-31 04:02:00,36.8,28.3,30.14,SW,222,0.0,1.0,71,0.00,,---,0.00,VWS V14.01,2013-03-31 08:02:00,
2013-03-31 04:07:00,37.0,29.8,30.14,SW,222,0.0,0.0,75,0.00,,---,0.00,VWS V14.01,2013-03-31 08:07:00,
2013-03-31 04:12:00,37.3,30.8,30.14,SW,222,0.0,0.0,77,0.00,,---,0.00,VWS V14.01,2013-03-31 08:12:00,
2013-03-31 04:17:00,37.6,31.4,30.14,SW,222,0.0,3.0,78,0.00,,---,0.00,VWS V14.01,2013-03-31 08:17:00,
2013-03-31 04:22:00,37.7,31.1,30.14,SW,222,0.0,2.0,77,0.00,,---,0.00,VWS V14.01,2013-03-31 08:22:00,
2013-03-31 04:27:00,37.6,30.7,30.14,SW,222,0.0,0.0,76,0.00,,---,0.00,VWS V14.01,2013-03-31 08:27:00,
2013-03-31 04:32:00,37.4,30.5,30.14,SW,222,0.0,0.0,76,0.00,,---,0.00,VWS V14.01,2013-03-31 08:32:00,
2013-03-31 04:37:00,37.0,30.1,30.14,SW,222,0.0,0.0,76,0.00,,---,0.00,VWS V14.01,2013-03-31 08:37:00,
2013-03-31 04:42:00,36.9,29.4,30.14,SW,222,0.0,0.0,74,0.00,,---,0.00,VWS V14.01,2013-03-31 08:42:00,
2013-03-31 04:47:00,37.2,29.7,30.14,SW,222,1.0,3.0,74,0.00,,---,0.00,VWS V14.01,2013-03-31 08:47:00,
2013-03-31 04:52:00,37.3,29.8,30.14,SW,222,0.0,2.0,74,0.00,,---,0.00,VWS V14.01,2013-03-31 08:52:00,
2013-03-31 04:57:00,37.3,29.5,30.14,SW,222,0.0,0.0,73,0.00,,---,0.00,VWS V14.01,2013-03-31 08:57:00,
2013-03-31 05:02:00,37.0,30.1,30.14,SW,222,0.0,0.0,76,0.00,,---,0.00,VWS V14.01,2013-03-31 09:02:00,
2013-03-31 05:07:00,37.0,32.0,30.14,SW,222,0.0,1.0,82,0.00,,---,0.00,VWS V14.01,2013-03-31 09:07:00,
2013-03-31 05:12:00,37.4,32.4,30.14,SW,222,0.0,0.0,82,0.00,,---,0.00,VWS V14.01,2013-03-31 09:12:00,
2013-03-31 05:17:00,37.6,32.9,30.15,SW,222,0.0,0.0,83,0.00,,---,0.00,VWS V14.01,2013-03-31 09:17:00,
2013-03-31 05:22:00,37.8,33.1,30.14,SW,222,0.0,1.0,83,0.00,,---,0.00,VWS V14.01,2013-03-31 09:22:00,
2013-03-31 05:27:00,37.8,32.8,30.14,SW,222,0.0,1.0,82,0.00,,---,0.00,VWS V14.01,2013-03-31 09:27:00,
2013-03-31 05:32:00,37.6,32.6,30.14,SW,222,0.0,0.0,82,0.00,,---,0.00,VWS V14.01,2013-03-31 09:32:00,
2013-03-31 05:37:00,37.2,32.5,30.14,SW,222,0.0,0.0,83,0.00,,---,0.00,VWS V14.01,2013-03-31 09:37:00,
2013-03-31 05:42:00,36.9,32.2,30.14,SW,222,0.0,0.0,83,0.00,,---,0.00,VWS V14.01,2013-03-31 09:42:00,
2013-03-31 05:47:00,36.6,32.2,30.14,SW,222,0.0,0.0,84,0.00,,---,0.00,VWS V14.01,2013-03-31 09:47:00,
2013-03-31 05:52:00,36.4,32.0,30.14,SW,222,0.0,0.0,84,0.00,,---,0.00,VWS V14.01,2013-03-31 09:52:00,
2013-03-31 05:57:00,36.2,31.8,30.14,SW,222,0.0,0.0,84,0.00,,---,0.00,VWS V14.01,2013-03-31 09:57:00,
2013-03-31 06:02:00,36.1,32.0,30.14,SW,222,0.0,0.0,85,0.00,,---,0.00,VWS V14.01,2013-03-31 10:02:00,
2013-03-31 06:07:00,36.0,31.6,30.14,SW,222,0.0,0.0,84,0.00,,---,0.00,VWS V14.01,2013-03-31 10:07:00,
2013-03-31 06:12:00,35.7,31.4,30.14,SW,222,0.0,0.0,84,0.00,,---,0.00,VWS V14.01,2013-03-31 10:12:00,
2013-03-31 06:17:00,35.6,31.5,30.14,SW,222,0.0,0.0,85,0.00,,---,0.00,VWS V14.01,2013-03-31 10:17:00,
2013-03-31 06:22:00,35.5,31.1,30.14,SW,222,0.0,0.0,84,0.00,,---,0.00,VWS V14.01,2013-03-31 10:22:00,
2013-03-31 06:27:00,35.6,31.0,30.15,SW,222,0.0,0.0,83,0.00,,---,0.00,VWS V14.01,2013-03-31 10:27:00,
2013-03-31 06:32:00,35.9,31.2,30.15,SW,222,0.0,0.0,83,0.00,,---,0.00,VWS V14.01,2013-03-31 10:32:00,
2013-03-31 06:37:00,36.4,32.3,30.14,SW,222,0.0,0.0,85,0.00,,---,0.00,VWS V14.01,2013-03-31 10:37:00,
2013-03-31 06:42:00,36.7,32.3,30.14,SW,222,0.0,1.0,84,0.00,,---,0.00,VWS V14.01,2013-03-31 10:42:00,
2013-03-31 06:47:00,37.0,33.2,30.15,SW,222,0.0,1.0,86,0.00,,---,0.00,VWS V14.01,2013-03-31 10:47:00,
2013-03-31 06:52:00,37.3,34.1,30.15,SW,222,0.0,1.0,88,0.00,,---,0.00,VWS V14.01,2013-03-31 10:52:00,
2013-03-31 06:57:00,37.8,34.6,30.15,SW,222,0.0,1.0,88,0.00,,---,0.00,VWS V14.01,2013-03-31 10:57:00,
2013-03-31 07:02:00,38.2,35.2,30.15,SW,222,0.0,1.0,89,0.00,,---,0.00,VWS V14.01,2013-03-31 11:02:00,
2013-03-31 07:07:00,38.6,35.6,30.16,SW,222,0.0,2.0,89,0.00,,---,0.00,VWS V14.01,2013-03-31 11:07:00,
2013-03-31 07:12:00,38.9,35.9,30.16,SW,222,1.0,1.0,89,0.00,,---,0.00,VWS V14.01,2013-03-31 11:12:00,
2013-03-31 07:17:00,39.2,36.0,30.16,SW,222,0.0,3.0,88,0.00,,---,0.00,VWS V14.01,2013-03-31 11:17:00,
2013-03-31 07:23:00,39.3,36.0,30.16,SW,222,0.0,2.0,88,0.00,,---,0.00,VWS V14.01,2013-03-31 11:23:00,
2013-03-31 07:28:00,39.5,36.2,30.16,SW,222,0.0,0.0,88,0.00,,---,0.00,VWS V14.01,2013-03-31 11:28:00,
2013-03-31 07:33:00,39.5,36.0,30.16,SW,222,0.0,0.0,87,0.00,,---,0.00,VWS V14.01,2013-03-31 11:33:00,
2013-03-31 07:38:00,39.7,36.2,30.15,SW,222,0.0,1.0,87,0.00,,---,0.00,VWS V14.01,2013-03-31 11:38:00,
2013-03-31 07:43:00,40.0,36.5,30.16,SW,222,0.0,0.0,87,0.00,,---,0.00,VWS V14.01,2013-03-31 11:43:00,
2013-03-31 07:48:00,40.4,36.5,30.16,SW,222,0.0,0.0,86,0.00,,---,0.00,VWS V14.01,2013-03-31 11:48:00,
2013-03-31 07:53:00,40.7,36.5,30.16,SW,222,0.0,1.0,85,0.00,,---,0.00,VWS V14.01,2013-03-31 11:53:00,
2013-03-31 07:58:00,41.0,36.8,30.16,SW,218,3.0,5.0,85,0.00,,---,0.00,VWS V14.01,2013-03-31 11:58:00,
2013-03-31 08:03:00,41.2,36.7,30.16,SW,217,2.0,3.0,84,0.00,,---,0.00,VWS V14.01,2013-03-31 12:03:00,
2013-03-31 08:08:00,41.3,37.1,30.16,SW,214,0.0,4.0,85,0.00,,---,0.00,VWS V14.01,2013-03-31 12:08:00,
2013-03-31 08:13:00,41.5,37.0,30.16,SW,214,0.0,1.0,84,0.00,,---,0.00,VWS V14.01,2013-03-31 12:13:00,
2013-03-31 08:18:00,41.8,36.4,30.15,SSW,212,1.0,2.0,81,0.00,,---,0.00,VWS V14.01,2013-03-31 12:18:00,
2013-03-31 08:23:00,42.1,37.0,30.15,SW,214,0.0,4.0,82,0.00,,---,0.00,VWS V14.01,2013-03-31 12:23:00,
2013-03-31 08:28:00,42.4,36.0,30.15,SW,214,0.0,0.0,78,0.00,,---,0.00,VWS V14.01,2013-03-31 12:28:00,
2013-03-31 08:33:00,42.9,36.2,30.15,SW,214,1.0,1.0,77,0.00,,---,0.00,VWS V14.01,2013-03-31 12:33:00,
2013-03-31 08:38:00,43.1,37.4,30.15,SSW,213,0.0,3.0,80,0.00,,---,0.00,VWS V14.01,2013-03-31 12:38:00,
2013-03-31 08:43:00,43.2,37.8,30.15,SSW,213,0.0,1.0,81,0.00,,---,0.00,VWS V14.01,2013-03-31 12:43:00,
2013-03-31 08:48:00,43.6,37.2,30.14,SSW,213,0.0,1.0,78,0.00,,---,0.00,VWS V14.01,2013-03-31 12:48:00,
2013-03-31 08:53:00,44.1,36.4,30.14,SSW,213,0.0,1.0,74,0.00,,---,0.00,VWS V14.01,2013-03-31 12:53:00,
2013-03-31 08:58:00,44.6,36.5,30.14,SSW,212,0.0,1.0,73,0.00,,---,0.00,VWS V14.01,2013-03-31 12:58:00,
2013-03-31 09:03:00,45.1,35.5,30.14,SSW,212,0.0,1.0,69,0.00,,---,0.00,VWS V14.01,2013-03-31 13:03:00,
2013-03-31 09:08:00,45.5,35.9,30.14,SSW,212,1.0,2.0,69,0.00,,---,0.00,VWS V14.01,2013-03-31 13:08:00,
2013-03-31 09:13:00,45.8,36.2,30.14,SSW,212,3.0,3.0,69,0.00,,---,0.00,VWS V14.01,2013-03-31 13:13:00,
2013-03-31 09:18:00,46.2,36.6,30.14,SSW,212,1.0,3.0,69,0.00,,---,0.00,VWS V14.01,2013-03-31 13:18:00,
2013-03-31 09:23:00,45.6,38.2,30.14,SSW,204,0.0,3.0,75,0.00,,---,0.00,VWS V14.01,2013-03-31 13:23:00,
2013-03-31 09:28:00,44.3,38.2,30.14,South,189,3.0,4.0,79,0.00,,---,0.00,VWS V14.01,2013-03-31 13:28:00,
2013-03-31 09:33:00,43.7,38.3,30.14,South,187,2.0,4.0,81,0.00,,---,0.00,VWS V14.01,2013-03-31 13:33:00,
2013-03-31 09:38:00,43.6,38.8,30.15,South,186,0.0,4.0,83,0.00,,---,0.00,VWS V14.01,2013-03-31 13:38:00,
2013-03-31 09:43:00,43.6,38.2,30.15,SSW,205,1.0,9.0,81,0.00,,---,0.00,VWS V14.01,2013-03-31 13:43:00,
2013-03-31 09:48:00,43.8,39.0,30.15,SSW,204,3.0,4.0,83,0.00,,---,0.00,VWS V14.01,2013-03-31 13:48:00,
2013-03-31 09:53:00,44.0,39.5,30.15,South,175,0.0,5.0,84,0.00,,---,0.00,VWS V14.01,2013-03-31 13:53:00,
2013-03-31 09:58:00,44.0,39.2,30.15,South,181,3.0,6.0,83,0.00,,---,0.00,VWS V14.01,2013-03-31 13:58:00,
2013-03-31 10:03:00,43.4,39.2,30.16,SSW,208,2.0,9.0,85,0.00,,---,0.00,VWS V14.01,2013-03-31 14:03:00,
2013-03-31 10:08:00,43.5,39.3,30.15,South,178,5.0,9.0,85,0.00,,---,0.00,VWS V14.01,2013-03-31 14:08:00,
2013-03-31 10:13:00,43.6,39.1,30.15,South,190,3.0,10.0,84,0.00,,---,0.00,VWS V14.01,2013-03-31 14:13:00,
2013-03-31 10:18:00,43.5,39.0,30.15,SSW,195,3.0,6.0,84,0.00,,---,0.00,VWS V14.01,2013-03-31 14:18:00,
2013-03-31 10:23:00,43.7,39.5,30.15,South,187,5.0,8.0,85,0.00,,---,0.00,VWS V14.01,2013-03-31 14:23:00,
2013-03-31 10:29:00,44.0,39.8,30.15,SSW,194,2.0,10.0,85,0.00,,---,0.00,VWS V14.01,2013-03-31 14:29:00,
2013-03-31 10:34:00,44.2,40.0,30.15,South,184,1.0,10.0,85,0.00,,---,0.00,VWS V14.01,2013-03-31 14:34:00,
2013-03-31 10:39:00,44.1,39.9,30.15,SSE,155,2.0,7.0,85,0.00,,---,0.00,VWS V14.01,2013-03-31 14:39:00,
2013-03-31 10:44:00,44.5,40.6,30.15,SSW,194,3.0,6.0,86,0.00,,---,0.00,VWS V14.01,2013-03-31 14:44:00,
2013-03-31 10:49:00,44.8,40.3,30.15,SSW,197,4.0,5.0,84,0.00,,---,0.00,VWS V14.01,2013-03-31 14:49:00,
2013-03-31 10:54:00,44.4,39.9,30.15,South,189,3.0,7.0,84,0.00,,---,0.00,VWS V14.01,2013-03-31 14:54:00,
2013-03-31 10:59:00,43.7,39.5,30.15,SSW,193,1.0,7.0,85,0.00,,---,0.00,VWS V14.01,2013-03-31 14:59:00,
2013-03-31 11:04:00,43.3,39.4,30.15,SSW,193,2.0,6.0,86,0.00,,---,0.00,VWS V14.01,2013-03-31 15:04:00,
2013-03-31 11:09:00,43.2,39.6,30.15,SSW,195,4.0,7.0,87,0.00,,---,0.00,VWS V14.01,2013-03-31 15:09:00,
2013-03-31 11:14:00,43.2,39.3,30.15,SSW,199,4.0,7.0,86,0.00,,---,0.00,VWS V14.01,2013-03-31 15:14:00,
2013-03-31 11:19:00,43.7,39.8,30.15,South,187,2.0,4.0,86,0.00,,---,0.00,VWS V14.01,2013-03-31 15:19:00,
2013-03-31 11:24:00,44.0,39.8,30.15,SSW,195,2.0,9.0,85,0.00,,---,0.00,VWS V14.01,2013-03-31 15:24:00,
2013-03-31 11:29:00,44.0,39.5,30.15,SSW,193,2.0,9.0,84,0.00,,---,0.00,VWS V14.01,2013-03-31 15:29:00,
2013-03-31 11:34:00,43.9,39.7,30.15,SSW,197,3.0,9.0,85,0.00,,---,0.00,VWS V14.01,2013-03-31 15:34:00,
2013-03-31 11:39:00,44.1,40.2,30.15,SW,216,4.0,11.0,86,0.00,,---,0.00,VWS V14.01,2013-03-31 15:39:00,
2013-03-31 11:44:00,44.3,40.4,30.15,SSW,210,1.0,11.0,86,0.00,,---,0.00,VWS V14.01,2013-03-31 15:44:00,
2013-03-31 11:49:00,44.1,40.2,30.15,South,182,3.0,6.0,86,0.00,,---,0.00,VWS V14.01,2013-03-31 15:49:00,
2013-03-31 11:54:00,43.7,40.4,30.14,South,180,1.0,5.0,88,0.00,,---,0.00,VWS V14.01,2013-03-31 15:54:00,
2013-03-31 11:59:00,44.1,40.5,30.15,SSW,193,4.0,6.0,87,0.00,,---,0.00,VWS V14.01,2013-03-31 15:59:00,
2013-03-31 12:04:00,44.0,40.1,30.14,SSW,194,2.0,6.0,86,0.00,,---,0.00,VWS V14.01,2013-03-31 16:04:00,
2013-03-31 12:09:00,44.8,41.2,30.14,SSW,201,2.0,13.0,87,0.00,,---,0.00,VWS V14.01,2013-03-31 16:09:00,
2013-03-31 12:14:00,45.2,40.7,30.14,SW,215,2.0,5.0,84,0.00,,---,0.00,VWS V14.01,2013-03-31 16:14:00,
2013-03-31 12:19:00,45.2,40.3,30.14,SSW,199,4.0,5.0,83,0.00,,---,0.00,VWS V14.01,2013-03-31 16:19:00,
2013-03-31 12:24:00,45.0,40.2,30.14,SSW,192,6.0,9.0,83,0.00,,---,0.00,VWS V14.01,2013-03-31 16:24:00,
2013-03-31 12:29:00,44.8,40.3,30.14,SSE,166,2.0,7.0,84,0.00,,---,0.00,VWS V14.01,2013-03-31 16:29:00,
2013-03-31 12:34:00,45.0,40.5,30.14,South,189,7.0,10.0,84,0.00,,---,0.00,VWS V14.01,2013-03-31 16:34:00,
2013-03-31 12:39:00,45.2,40.3,30.13,SSW,203,2.0,9.0,83,0.00,,---,0.00,VWS V14.01,2013-03-31 16:39:00,
2013-03-31 12:44:00,45.5,40.3,30.13,South,185,3.0,12.0,82,0.00,,---,0.00,VWS V14.01,2013-03-31 16:44:00,
2013-03-31 12:49:00,45.5,40.3,30.13,SSE,152,3.0,6.0,82,0.00,,---,0.00,VWS V14.01,2013-03-31 16:49:00,
2013-03-31 12:54:00,45.5,40.3,30.13,South,184,2.0,9.0,82,0.00,,---,0.00,VWS V14.01,2013-03-31 16:54:00,
2013-03-31 12:59:00,45.4,40.2,30.12,South,183,3.0,9.0,82,0.00,,---,0.00,VWS V14.01,2013-03-31 16:59:00,
2013-03-31 13:04:00,45.0,39.8,30.12,South,182,3.0,13.0,82,0.00,,---,0.00,VWS V14.01,2013-03-31 17:04:00,
2013-03-31 13:09:00,44.9,40.1,30.12,South,188,1.0,6.0,83,0.00,,---,0.00,VWS V14.01,2013-03-31 17:09:00,
2013-03-31 13:14:00,45.1,40.2,30.12,SSE,162,4.0,11.0,83,0.00,,---,0.00,VWS V14.01,2013-03-31 17:14:00,
2013-03-31 13:19:00,45.0,39.8,30.12,South,181,3.0,9.0,82,0.00,,---,0.00,VWS V14.01,2013-03-31 17:19:00,
2013-03-31 13:24:00,44.8,40.0,30.12,South,187,4.0,8.0,83,0.00,,---,0.00,VWS V14.01,2013-03-31 17:24:00,
2013-03-31 13:29:00,45.0,39.8,30.12,SSW,204,5.0,13.0,82,0.00,,---,0.00,VWS V14.01,2013-03-31 17:29:00,
2013-03-31 13:34:00,45.0,39.8,30.11,SSW,211,10.0,11.0,82,0.00,,---,0.00,VWS V14.01,2013-03-31 17:34:00,
2013-03-31 13:39:00,44.7,39.5,30.11,South,188,5.0,9.0,82,0.00,,---,0.00,VWS V14.01,2013-03-31 17:39:00,
2013-03-31 13:44:00,44.3,39.5,30.11,SSW,199,4.0,12.0,83,0.00,,---,0.00,VWS V14.01,2013-03-31 17:44:00,
2013-03-31 13:49:00,44.3,39.8,30.11,South,176,4.0,11.0,84,0.00,,---,0.00,VWS V14.01,2013-03-31 17:49:00,
2013-03-31 13:54:00,44.5,40.0,30.10,SSW,195,6.0,10.0,84,0.00,,---,0.00,VWS V14.01,2013-03-31 17:54:00,
2013-03-31 13:59:00,44.5,39.7,30.11,South,186,3.0,7.0,83,0.00,,---,0.00,VWS V14.01,2013-03-31 17:59:00,
2013-03-31 14:04:00,44.5,39.7,30.10,South,183,3.0,11.0,83,0.00,,---,0.00,VWS V14.01,2013-03-31 18:04:00,
2013-03-31 14:09:00,44.6,40.1,30.10,South,188,3.0,11.0,84,0.00,,---,0.00,VWS V14.01,2013-03-31 18:09:00,
2013-03-31 14:14:00,44.7,40.2,30.10,South,181,0.0,5.0,84,0.00,,---,0.00,VWS V14.01,2013-03-31 18:14:00,
2013-03-31 14:19:00,44.9,40.7,30.10,SSW,203,3.0,10.0,85,0.00,,---,0.00,VWS V14.01,2013-03-31 18:19:00,
2013-03-31 14:24:00,45.1,40.6,30.09,SW,216,4.0,12.0,84,0.00,,---,0.00,VWS V14.01,2013-03-31 18:24:00,
2013-03-31 14:29:00,45.1,40.6,30.09,SSW,193,6.0,10.0,84,0.00,,---,0.00,VWS V14.01,2013-03-31 18:29:00,
2013-03-31 14:34:00,44.9,40.1,30.09,South,184,3.0,9.0,83,0.00,,---,0.00,VWS V14.01,2013-03-31 18:34:00,
2013-03-31 14:39:00,44.6,40.1,30.09,SSW,201,6.0,10.0,84,0.00,,---,0.00,VWS V14.01,2013-03-31 18:39:00,
2013-03-31 14:44:00,44.7,40.5,30.09,SSW,211,1.0,14.0,85,0.00,,---,0.00,VWS V14.01,2013-03-31 18:44:00,
2013-03-31 14:49:00,45.0,40.5,30.10,South,176,3.0,10.0,84,0.00,,---,0.00,VWS V14.01,2013-03-31 18:49:00,
2013-03-31 14:54:00,45.1,40.6,30.09,South,181,3.0,11.0,84,0.00,,---,0.00,VWS V14.01,2013-03-31 18:54:00,
2013-03-31 14:59:00,45.1,40.6,30.09,SE,135,4.0,6.0,84,0.00,,---,0.00,VWS V14.01,2013-03-31 18:59:00,
2013-03-31 15:04:00,45.0,40.5,30.09,South,189,3.0,9.0,84,0.00,,---,0.00,VWS V14.01,2013-03-31 19:04:00,
2013-03-31 15:09:00,44.9,40.7,30.08,SSW,210,5.0,10.0,85,0.00,,---,0.00,VWS V14.01,2013-03-31 19:09:00,
2013-03-31 15:14:00,44.9,40.7,30.08,SSW,200,3.0,8.0,85,0.00,,---,0.00,VWS V14.01,2013-03-31 19:14:00,
2013-03-31 15:19:00,44.8,40.6,30.08,South,180,2.0,9.0,85,0.00,,---,0.00,VWS V14.01,2013-03-31 19:19:00,
2013-03-31 15:24:00,44.7,40.5,30.08,SSW,203,9.0,9.0,85,0.00,,---,0.00,VWS V14.01,2013-03-31 19:24:00,
2013-03-31 15:29:00,44.9,40.4,30.08,South,187,2.0,4.0,84,0.00,,---,0.00,VWS V14.01,2013-03-31 19:29:00,
2013-03-31 15:34:00,45.1,40.6,30.07,SSE,166,4.0,9.0,84,0.00,,---,0.00,VWS V14.01,2013-03-31 19:34:00,
2013-03-31 15:39:00,45.2,40.7,30.07,SSW,192,0.0,5.0,84,0.00,,---,0.00,VWS V14.01,2013-03-31 19:39:00,
2013-03-31 15:45:00,45.2,40.3,30.07,SSW,194,2.0,9.0,83,0.00,,---,0.00,VWS V14.01,2013-03-31 19:45:00,
2013-03-31 15:50:00,45.1,40.6,30.06,South,184,3.0,5.0,84,0.00,,---,0.00,VWS V14.01,2013-03-31 19:50:00,
2013-03-31 15:55:00,45.1,40.6,30.06,SSW,208,1.0,5.0,84,0.00,,---,0.00,VWS V14.01,2013-03-31 19:55:00,
2013-03-31 16:00:00,45.2,40.7,30.06,South,189,2.0,9.0,84,0.00,,---,0.00,VWS V14.01,2013-03-31 20:00:00,
2013-03-31 16:05:00,45.0,40.5,30.06,SSW,204,3.0,7.0,84,0.00,,---,0.00,VWS V14.01,2013-03-31 20:05:00,
2013-03-31 16:10:00,44.8,40.6,30.06,SW,219,3.0,7.0,85,0.00,,---,0.00,VWS V14.01,2013-03-31 20:10:00,
2013-03-31 16:15:00,44.8,40.6,30.06,South,185,2.0,7.0,85,0.00,,---,0.00,VWS V14.01,2013-03-31 20:15:00,
2013-03-31 16:20:00,44.8,40.6,30.05,South,184,3.0,5.0,85,0.00,,---,0.00,VWS V14.01,2013-03-31 20:20:00,
2013-03-31 16:25:00,44.7,40.5,30.05,South,189,2.0,4.0,85,0.00,,---,0.00,VWS V14.01,2013-03-31 20:25:00,
2013-03-31 16:30:00,44.9,40.7,30.06,South,179,1.0,3.0,85,0.00,,---,0.00,VWS V14.01,2013-03-31 20:30:00,
2013-03-31 16:35:00,45.4,40.5,30.05,SSE,154,2.0,9.0,83,0.00,,---,0.00,VWS V14.01,2013-03-31 20:35:00,
2013-03-31 16:40:00,45.6,40.7,30.05,SSE,166,1.0,6.0,83,0.00,,---,0.00,VWS V14.01,2013-03-31 20:40:00,
2013-03-31 16:45:00,45.9,40.7,30.05,South,177,1.0,4.0,82,0.00,,---,0.00,VWS V14.01,2013-03-31 20:45:00,
2013-03-31 16:50:00,46.1,40.6,30.05,South,172,1.0,5.0,81,0.00,,---,0.00,VWS V14.01,2013-03-31 20:50:00,
2013-03-31 16:55:00,46.3,40.5,30.04,SSE,167,1.0,5.0,80,0.00,,---,0.00,VWS V14.01,2013-03-31 20:55:00,
2013-03-31 17:00:00,46.4,40.6,30.04,SSE,168,2.0,4.0,80,0.00,,---,0.00,VWS V14.01,2013-03-31 21:00:00,
2013-03-31 17:05:00,46.4,40.6,30.04,South,170,3.0,6.0,80,0.00,,---,0.00,VWS V14.01,2013-03-31 21:05:00,
2013-03-31 17:10:00,46.4,40.6,30.04,SSE,149,2.0,7.0,80,0.00,,---,0.00,VWS V14.01,2013-03-31 21:10:00,
2013-03-31 17:15:00,46.4,40.6,30.04,SSE,155,0.0,4.0,80,0.00,,---,0.00,VWS V14.01,2013-03-31 21:15:00,
2013-03-31 17:20:00,46.3,40.8,30.04,SSE,157,3.0,5.0,81,0.00,,---,0.00,VWS V14.01,2013-03-31 21:20:00,
2013-03-31 17:25:00,46.2,40.4,30.04,SSE,152,2.0,6.0,80,0.00,,---,0.00,VWS V14.01,2013-03-31 21:25:00,
2013-03-31 17:30:00,46.1,40.3,30.04,SSE,166,2.0,4.0,80,0.00,,---,0.00,VWS V14.01,2013-03-31 21:30:00,
2013-03-31 17:35:00,46.2,40.1,30.03,SSE,168,1.0,6.0,79,0.00,,---,0.00,VWS V14.01,2013-03-31 21:35:00,
2013-03-31 17:40:00,46.3,39.8,30.03,SSE,161,1.0,7.0,78,0.00,,---,0.00,VWS V14.01,2013-03-31 21:40:00,
2013-03-31 17:45:00,46.5,40.0,30.03,SSE,147,1.0,6.0,78,0.00,,---,0.00,VWS V14.01,2013-03-31 21:45:00,
2013-03-31 17:50:00,46.5,39.7,30.03,SE,144,5.0,7.0,77,0.00,,---,0.00,VWS V14.01,2013-03-31 21:50:00,
2013-03-31 17:55:00,46.5,40.0,30.03,SE,144,2.0,9.0,78,0.00,,---,0.00,VWS V14.01,2013-03-31 21:55:00,
2013-03-31 18:00:00,46.5,40.3,30.03,SE,137,2.0,7.0,79,0.00,,---,0.00,VWS V14.01,2013-03-31 22:00:00,
2013-03-31 18:05:00,46.3,40.2,30.03,SE,142,4.0,11.0,79,0.00,,---,0.00,VWS V14.01,2013-03-31 22:05:00,
2013-03-31 18:10:00,46.2,40.1,30.03,SE,135,5.0,12.0,79,0.00,,---,0.00,VWS V14.01,2013-03-31 22:10:00,
2013-03-31 18:15:00,46.1,40.0,30.02,SE,130,2.0,10.0,79,0.00,,---,0.00,VWS V14.01,2013-03-31 22:15:00,
2013-03-31 18:20:00,46.1,40.3,30.02,SE,129,2.0,6.0,80,0.00,,---,0.00,VWS V14.01,2013-03-31 22:20:00,
2013-03-31 18:25:00,46.0,40.2,30.02,SE,127,2.0,6.0,80,0.00,,---,0.00,VWS V14.01,2013-03-31 22:25:00,
2013-03-31 18:30:00,46.0,40.2,30.02,SE,131,6.0,6.0,80,0.00,,---,0.00,VWS V14.01,2013-03-31 22:30:00,
2013-03-31 18:35:00,46.0,39.9,30.02,SE,140,1.0,10.0,79,0.00,,---,0.00,VWS V14.01,2013-03-31 22:35:00,
2013-03-31 18:40:00,46.0,39.9,30.02,SE,126,4.0,9.0,79,0.00,,---,0.00,VWS V14.01,2013-03-31 22:40:00,
2013-03-31 18:45:00,46.0,39.9,30.01,SE,128,1.0,10.0,79,0.00,,---,0.00,VWS V14.01,2013-03-31 22:45:00,
2013-03-31 18:50:00,46.0,39.9,30.01,ESE,114,1.0,7.0,79,0.00,,---,0.00,VWS V14.01,2013-03-31 22:50:00,
2013-03-31 18:55:00,46.0,39.9,30.01,SSE,158,3.0,11.0,79,0.00,,---,0.00,VWS V14.01,2013-03-31 22:55:00,
2013-03-31 19:00:00,45.9,39.8,30.01,ESE,111,5.0,6.0,79,0.00,,---,0.00,VWS V14.01,2013-03-31 23:00:00,
2013-03-31 19:05:00,45.9,39.8,30.01,ESE,116,1.0,6.0,79,0.00,,---,0.00,VWS V14.01,2013-03-31 23:05:00,
2013-03-31 19:10:00,45.9,39.8,30.00,SE,137,1.0,9.0,79,0.00,,---,0.00,VWS V14.01,2013-03-31 23:10:00,
2013-03-31 19:15:00,45.9,39.4,30.00,SE,138,6.0,8.0,78,0.00,,---,0.00,VWS V14.01,2013-03-31 23:15:00,
2013-03-31 19:20:00,46.0,39.2,30.00,SE,131,2.0,8.0,77,0.00,,---,0.00,VWS V14.01,2013-03-31 23:20:00,
2013-03-31 19:25:00,46.1,38.3,30.00,SSE,147,10.0,12.0,74,0.00,,---,0.00,VWS V14.01,2013-03-31 23:25:00,
2013-03-31 19:30:00,46.4,37.5,30.00,SE,137,3.0,11.0,71,0.00,,---,0.00,VWS V14.01,2013-03-31 23:30:00,
2013-03-31 19:35:00,46.5,36.9,30.00,ESE,123,1.0,13.0,69,0.00,,---,0.00,VWS V14.01,2013-03-31 23:35:00,
2013-03-31 19:40:00,46.6,37.0,30.00,SSE,154,4.0,13.0,69,0.00,,---,0.00,VWS V14.01,2013-03-31 23:40:00,
2013-03-31 19:45:00,46.7,36.7,29.99,SSE,155,5.0,11.0,68,0.00,,---,0.00,VWS V14.01,2013-03-31 23:45:00,
2013-03-31 19:50:00,46.7,36.7,29.99,SE,125,4.0,11.0,68,0.00,,---,0.00,VWS V14.01,2013-03-31 23:50:00,
2013-03-31 19:55:00,46.6,36.6,29.97,SE,134,11.0,12.0,68,0.00,,---,0.00,VWS V14.01,2013-03-31 23:55:00,
2013-03-31 20:00:00,46.6,36.6,29.97,SE,125,2.0,13.0,68,0.00,,---,0.00,VWS V14.01,2013-04-01 00:00:00,
2013-03-31 20:05:00,46.5,36.9,29.97,SE,137,2.0,12.0,69,0.00,,---,0.00,VWS V14.01,2013-04-01 00:05:00,
2013-03-31 20:10:00,46.5,37.3,29.97,SE,128,5.0,10.0,70,0.00,,---,0.00,VWS V14.01,2013-04-01 00:10:00,
2013-03-31 20:15:00,46.4,37.5,29.97,SE,125,2.0,12.0,71,0.00,,---,0.00,VWS V14.01,2013-04-01 00:15:00,
2013-03-31 20:20:00,46.4,37.5,29.97,SSE,147,10.0,11.0,71,0.00,,---,0.00,VWS V14.01,2013-04-01 00:20:00,
2013-03-31 20:25:00,46.4,37.5,29.95,ESE,120,2.0,13.0,71,0.00,,---,0.00,VWS V14.01,2013-04-01 00:25:00,
2013-03-31 20:30:00,46.5,37.3,29.96,SE,125,3.0,13.0,70,0.00,,---,0.00,VWS V14.01,2013-04-01 00:30:00,
2013-03-31 20:35:00,46.6,37.0,29.95,SE,138,6.0,13.0,69,0.00,,---,0.00,VWS V14.01,2013-04-01 00:35:00,
2013-03-31 20:40:00,46.9,36.9,29.95,SSE,156,7.0,16.0,68,0.00,,---,0.00,VWS V14.01,2013-04-01 00:40:00,
2013-03-31 20:45:00,47.0,37.0,29.94,SE,141,7.0,17.0,68,0.00,,---,0.00,VWS V14.01,2013-04-01 00:45:00,
2013-03-31 20:50:00,47.1,37.1,29.94,South,173,10.0,18.0,68,0.00,,---,0.00,VWS V14.01,2013-04-01 00:50:00,
2013-03-31 20:55:00,47.2,37.2,29.94,SE,137,6.0,17.0,68,0.00,,---,0.00,VWS V14.01,2013-04-01 00:55:00,
2013-03-31 21:00:00,47.3,37.3,29.93,South,174,4.0,16.0,68,0.00,,---,0.00,VWS V14.01,2013-04-01 01:00:00,
2013-03-31 21:05:00,47.4,37.4,29.93,SE,134,6.0,16.0,68,0.00,,---,0.00,VWS V14.01,2013-04-01 01:05:00,
2013-03-31 21:10:00,47.5,37.8,29.93,SE,139,12.0,16.0,69,0.00,,---,0.00,VWS V14.01,2013-04-01 01:10:00,
2013-03-31 21:15:00,47.5,37.8,29.93,SE,135,3.0,14.0,69,0.00,,---,0.00,VWS V14.01,2013-04-01 01:15:00,
2013-03-31 21:20:00,47.6,38.0,29.93,SE,136,4.0,4.0,69,0.00,,---,0.00,VWS V14.01,2013-04-01 01:20:00,
2013-03-31 21:25:00,47.6,38.3,29.92,SE,125,12.0,18.0,70,0.00,,---,0.00,VWS V14.01,2013-04-01 01:25:00,
2013-03-31 21:30:00,47.7,38.4,29.92,SE,138,5.0,20.0,70,0.00,,---,0.00,VWS V14.01,2013-04-01 01:30:00,
2013-03-31 21:35:00,47.6,39.0,29.92,SSE,153,4.0,14.0,72,0.00,,---,0.00,VWS V14.01,2013-04-01 01:35:00,
2013-03-31 21:40:00,47.2,40.0,29.92,ESE,123,5.0,6.0,76,0.00,,---,0.00,VWS V14.01,2013-04-01 01:40:00,
2013-03-31 21:45:00,46.7,40.5,29.91,ESE,110,2.0,18.0,79,0.01,,---,0.01,VWS V14.01,2013-04-01 01:45:00,
2013-03-31 21:50:00,46.3,40.5,29.90,SE,131,2.0,18.0,80,0.01,,---,0.01,VWS V14.01,2013-04-01 01:50:00,
2013-03-31 21:55:00,46.1,40.3,29.90,SE,129,10.0,16.0,80,0.01,,---,0.01,VWS V14.01,2013-04-01 01:55:00,
2013-03-31 22:00:00,46.0,40.8,29.89,SE,134,10.0,15.0,82,0.01,,---,0.01,VWS V14.01,2013-04-01 02:00:00,
2013-03-31 22:05:00,45.9,41.0,29.89,SSE,157,10.0,21.0,83,0.02,,---,0.02,VWS V14.01,2013-04-01 02:05:00,
2013-03-31 22:10:00,45.6,41.4,29.88,ESE,111,12.0,18.0,85,0.03,,---,0.03,VWS V14.01,2013-04-01 02:10:00,
2013-03-31 22:15:00,45.4,41.5,29.88,SE,135,2.0,19.0,86,0.03,,---,0.03,VWS V14.01,2013-04-01 02:15:00,
2013-03-31 22:20:00,45.1,41.2,29.87,SE,133,16.0,16.0,86,0.04,,---,0.04,VWS V14.01,2013-04-01 02:20:00,
2013-03-31 22:25:00,45.0,41.4,29.87,SE,134,12.0,16.0,87,0.04,,---,0.04,VWS V14.01,2013-04-01 02:25:00,
2013-03-31 22:30:00,44.9,41.6,29.86,ESE,122,9.0,19.0,88,0.05,,---,0.05,VWS V14.01,2013-04-01 02:30:00,
2013-03-31 22:35:00,44.9,41.9,29.86,SSE,156,5.0,20.0,89,0.05,,---,0.05,VWS V14.01,2013-04-01 02:35:00,
2013-03-31 22:40:00,44.8,42.0,29.85,SE,138,12.0,18.0,90,0.05,,---,0.05,VWS V14.01,2013-04-01 02:40:00,
2013-03-31 22:45:00,44.7,42.2,29.84,SE,125,9.0,19.0,91,0.06,,---,0.06,VWS V14.01,2013-04-01 02:45:00,
2013-03-31 22:50:00,44.7,42.2,29.83,ESE,118,6.0,18.0,91,0.05,,---,0.06,VWS V14.01,2013-04-01 02:50:00,
2013-03-31 22:55:00,44.7,42.5,29.83,East,101,12.0,18.0,92,0.06,,---,0.07,VWS V14.01,2013-04-01 02:55:00,
2013-03-31 23:00:00,44.8,42.6,29.82,ESE,107,14.0,16.0,92,0.06,,---,0.07,VWS V14.01,2013-04-01 03:00:00,
2013-03-31 23:05:00,45.0,43.1,29.81,ESE,118,4.0,21.0,93,0.06,,---,0.07,VWS V14.01,2013-04-01 03:05:00,
2013-03-31 23:10:00,45.1,43.2,29.81,SE,145,14.0,17.0,93,0.06,,---,0.08,VWS V14.01,2013-04-01 03:10:00,
2013-03-31 23:15:00,45.0,43.1,29.80,SSE,154,10.0,18.0,93,0.06,,---,0.09,VWS V14.01,2013-04-01 03:15:00,
2013-03-31 23:20:00,45.0,43.1,29.79,ESE,104,4.0,15.0,93,0.07,,---,0.10,VWS V14.01,2013-04-01 03:20:00,
2013-03-31 23:25:00,45.0,43.1,29.79,East,90,6.0,20.0,93,0.06,,---,0.10,VWS V14.01,2013-04-01 03:25:00,
2013-03-31 23:30:00,45.0,43.1,29.79,SE,130,8.0,17.0,93,0.06,,---,0.10,VWS V14.01,2013-04-01 03:30:00,
2013-03-31 23:35:00,44.9,43.0,29.79,ESE,117,3.0,15.0,93,0.05,,---,0.10,VWS V14.01,2013-04-01 03:35:00,
2013-03-31 23:40:00,44.9,43.3,29.78,South,170,7.0,17.0,94,0.06,,---,0.11,VWS V14.01,2013-04-01 03:40:00,
2013-03-31 23:45:00,45.0,43.4,29.78,SE,128,4.0,17.0,94,0.07,,---,0.12,VWS V14.01,2013-04-01 03:45:00,
2013-03-31 23:50:00,44.9,43.3,29.78,SE,124,4.0,14.0,94,0.07,,---,0.13,VWS V14.01,2013-04-01 03:50:00,
2013-03-31 23:55:00,44.9,43.3,29.77,East,100,6.0,14.0,94,0.08,,---,0.14,VWS V14.01,2013-04-01 03:55:00,